Time;durP1;ratioP1;P1;durP2;ratioP2;P2;SDS_P1;SDS_P2;PMS_P1;PMS_P2;Temp;Humidity;BMP_temperature;BMP_pressure;BME280_temperature;BME280_humidity;BME280_pressure;Samples;Min_cycle;Max_cycle;Signal;HPM_P1;HPM_P2
2022/11/20 00:00:54;;;;;;;31.17;19.55;;;5.70;99.90;;;;;;5073492;28;20025;-76
2022/11/20 00:03:20;;;;;;;30.23;20.33;;;5.50;99.90;;;;;;5075106;28;20385;-76
2022/11/20 00:05:46;;;;;;;33.83;19.92;;;5.60;99.90;;;;;;5057221;28;20032;-77
2022/11/20 00:08:12;;;;;;;32.92;19.83;;;5.50;99.90;;;;;;5074975;28;20020;-77
2022/11/20 00:10:39;;;;;;;50.97;29.60;;;5.50;99.90;;;;;;5073616;28;20111;-77
2022/11/20 00:13:05;;;;;;;37.13;23.10;;;5.80;99.90;;;;;;5072936;28;20024;-76
2022/11/20 00:15:30;;;;;;;29.80;18.65;;;5.80;99.90;;;;;;5073580;28;20073;-76
2022/11/20 00:17:56;;;;;;;28.30;18.77;;;5.60;99.90;;;;;;5073573;28;20037;-76
2022/11/20 00:20:22;;;;;;;31.45;20.17;;;5.70;99.90;;;;;;5074646;28;20086;-76
2022/11/20 00:22:49;;;;;;;26.80;18.08;;;5.70;99.90;;;;;;5074524;28;20024;-76
2022/11/20 00:25:15;;;;;;;33.33;20.02;;;5.80;99.90;;;;;;5074722;28;20376;-77
2022/11/20 00:27:41;;;;;;;30.50;19.08;;;5.90;99.90;;;;;;5056729;28;20040;-77
2022/11/20 00:30:07;;;;;;;33.13;20.05;;;5.80;99.90;;;;;;5074736;28;20016;-77
2022/11/20 00:32:33;;;;;;;27.15;19.05;;;5.80;99.90;;;;;;5056454;28;20078;-77
2022/11/20 00:34:59;;;;;;;33.53;21.02;;;5.90;99.90;;;;;;5073212;28;20025;-76
2022/11/20 00:37:24;;;;;;;28.23;18.77;;;5.90;99.90;;;;;;5074013;28;20067;-77
2022/11/20 00:39:50;;;;;;;34.85;19.88;;;5.70;99.90;;;;;;5073055;28;20028;-77
2022/11/20 00:42:16;;;;;;;27.95;18.85;;;5.80;99.90;;;;;;5073302;28;20032;-76
2022/11/20 00:44:41;;;;;;;28.48;18.65;;;5.90;99.90;;;;;;5074017;28;20032;-77
2022/11/20 00:47:07;;;;;;;29.88;19.80;;;5.90;99.90;;;;;;5074104;28;20036;-77
2022/11/20 00:49:33;;;;;;;34.65;19.85;;;6.00;99.90;;;;;;5067121;28;20063;-77
2022/11/20 00:51:59;;;;;;;30.27;21.30;;;6.10;99.90;;;;;;5073804;28;20029;-77
2022/11/20 00:54:24;;;;;;;30.05;19.05;;;6.10;99.90;;;;;;5073024;28;20060;-77
2022/11/20 00:56:53;;;;;;;29.85;20.30;;;6.10;99.90;;;;;;5074187;28;20032;-77
2022/11/20 00:59:18;;;;;;;31.02;19.73;;;6.00;99.90;;;;;;5072389;28;20120;-77
2022/11/20 01:01:44;;;;;;;34.35;19.95;;;6.10;99.90;;;;;;5074108;28;20116;-76
2022/11/20 01:04:10;;;;;;;39.00;25.23;;;6.20;99.90;;;;;;5073443;28;20074;-77
2022/11/20 01:06:37;;;;;;;36.30;21.67;;;6.10;99.90;;;;;;5073568;28;20021;-77
2022/11/20 01:09:10;;;;;;;29.15;19.13;;;6.30;99.90;;;;;;5073882;28;20032;-77
2022/11/20 01:11:38;;;;;;;30.90;20.25;;;6.30;99.90;;;;;;5073836;28;20150;-76
2022/11/20 01:14:07;;;;;;;32.30;19.58;;;6.30;99.90;;;;;;5073701;28;20032;-77
2022/11/20 01:16:35;;;;;;;30.88;20.23;;;6.30;99.90;;;;;;5073243;28;20028;-77
2022/11/20 01:19:05;;;;;;;28.88;20.67;;;6.20;99.90;;;;;;5072614;28;20115;-77
2022/11/20 01:21:37;;;;;;;31.02;21.42;;;6.20;99.90;;;;;;5073170;28;20028;-77
2022/11/20 01:24:04;;;;;;;32.47;21.70;;;6.20;99.90;;;;;;5073497;28;20039;-76
2022/11/20 01:26:32;;;;;;;36.30;20.75;;;6.20;99.90;;;;;;5073030;28;20392;-77
2022/11/20 01:28:59;;;;;;;29.40;20.20;;;5.70;99.90;;;;;;5073248;28;20032;-77
2022/11/20 01:31:27;;;;;;;36.47;21.13;;;5.50;99.90;;;;;;5072328;28;20059;-76
2022/11/20 01:33:55;;;;;;;34.15;21.38;;;5.40;99.90;;;;;;5073174;28;20149;-76
2022/11/20 01:36:23;;;;;;;38.55;21.15;;;5.40;99.90;;;;;;5072763;28;20032;-77
2022/11/20 01:38:54;;;;;;;34.83;20.98;;;4.90;99.90;;;;;;5072145;28;20036;-76
2022/11/20 01:44:06;;;;;;;33.13;19.55;;;5.10;99.90;;;;;;5071321;28;20032;-76
2022/11/20 01:46:36;;;;;;;41.97;22.65;;;5.10;99.90;;;;;;5072419;28;20025;-76
2022/11/20 01:49:19;;;;;;;43.72;22.95;;;5.50;99.90;;;;;;5073457;28;20028;-76
2022/11/20 01:51:48;;;;;;;41.17;22.85;;;5.00;99.90;;;;;;5072863;28;20028;-76
2022/11/20 01:54:19;;;;;;;36.40;22.35;;;5.10;99.90;;;;;;5071461;28;20397;-76
2022/11/20 01:56:46;;;;;;;49.25;24.05;;;5.30;99.90;;;;;;5073109;28;20437;-76
2022/11/20 01:59:14;;;;;;;43.83;23.05;;;4.80;99.90;;;;;;5071565;28;20477;-76
2022/11/20 02:01:40;;;;;;;44.75;22.67;;;4.60;99.90;;;;;;5071932;28;20013;-76
2022/11/20 02:04:09;;;;;;;42.33;23.92;;;4.50;99.90;;;;;;5072744;28;20032;-76
2022/11/20 02:06:57;;;;;;;48.17;25.65;;;4.60;99.90;;;;;;5072311;28;20048;-76
2022/11/20 02:09:22;;;;;;;45.65;24.55;;;4.60;99.90;;;;;;5072468;28;20039;-76
2022/11/20 02:11:49;;;;;;;51.97;24.08;;;4.50;99.90;;;;;;5071499;28;20017;-76
2022/11/20 02:14:14;;;;;;;47.95;24.35;;;4.90;99.90;;;;;;5068128;28;20472;-77
2022/11/20 02:16:45;;;;;;;50.85;24.63;;;4.90;99.90;;;;;;5072751;28;20036;-76
2022/11/20 02:19:24;;;;;;;54.65;25.40;;;4.50;99.90;;;;;;5072313;28;20051;-76
2022/11/20 02:22:21;;;;;;;42.75;22.83;;;4.10;99.90;;;;;;5072708;28;20016;-76
2022/11/20 02:24:49;;;;;;;46.20;24.20;;;4.20;99.90;;;;;;5072619;28;20028;-76
2022/11/20 02:27:16;;;;;;;50.03;25.65;;;4.40;99.90;;;;;;5072545;28;20024;-76
2022/11/20 02:29:49;;;;;;;47.45;25.60;;;4.30;99.90;;;;;;5072830;28;20564;-76
2022/11/20 02:32:29;;;;;;;40.58;23.73;;;4.40;99.90;;;;;;5072133;28;20021;-76
2022/11/20 02:35:05;;;;;;;43.45;24.98;;;4.50;99.90;;;;;;5069695;28;20542;-76
2022/11/20 02:37:36;;;;;;;45.83;25.02;;;4.60;99.90;;;;;;5071392;28;20107;-76
2022/11/20 02:40:02;;;;;;;46.38;24.42;;;4.70;99.90;;;;;;5072195;28;20036;-76
2022/11/20 02:42:28;;;;;;;51.00;25.52;;;4.70;99.90;;;;;;5072612;28;20033;-76
2022/11/20 02:44:53;;;;;;;47.80;25.23;;;4.60;99.90;;;;;;5072511;28;20078;-77
2022/11/20 02:47:19;;;;;;;45.85;24.75;;;4.60;99.90;;;;;;5072651;28;20028;-76
2022/11/20 02:49:45;;;;;;;41.97;25.58;;;4.40;99.90;;;;;;5070781;28;20033;-76
2022/11/20 02:52:10;;;;;;;44.90;24.92;;;4.20;99.90;;;;;;5072624;28;20115;-76
2022/11/20 02:54:36;;;;;;;51.95;25.20;;;4.40;99.90;;;;;;5072342;28;20021;-76
2022/11/20 02:57:02;;;;;;;40.17;24.60;;;4.60;99.90;;;;;;5072303;28;20040;-76
2022/11/20 02:59:28;;;;;;;49.03;25.33;;;4.60;99.90;;;;;;5070903;28;20037;-76
2022/11/20 03:01:53;;;;;;;39.53;23.50;;;4.70;99.90;;;;;;5072316;28;20049;-76
2022/11/20 03:04:19;;;;;;;45.67;25.25;;;4.70;99.90;;;;;;5071808;28;20173;-76
2022/11/20 03:06:45;;;;;;;47.17;23.80;;;4.50;99.90;;;;;;5072128;28;20031;-76
2022/11/20 03:09:11;;;;;;;41.38;22.85;;;4.40;99.90;;;;;;5072539;28;20029;-76
2022/11/20 03:11:37;;;;;;;43.47;24.40;;;4.50;99.90;;;;;;5072104;28;20029;-76
2022/11/20 03:14:04;;;;;;;47.97;25.67;;;4.50;99.90;;;;;;5071016;28;20032;-76
2022/11/20 03:16:31;;;;;;;52.10;27.65;;;4.80;99.90;;;;;;5071854;28;20056;-76
2022/11/20 03:18:57;;;;;;;56.70;30.30;;;4.40;99.90;;;;;;5072112;28;20067;-76
2022/11/20 03:21:22;;;;;;;58.25;32.70;;;4.40;99.90;;;;;;5070898;28;20041;-76
2022/11/20 03:23:48;;;;;;;60.05;32.92;;;4.50;99.90;;;;;;5072214;28;20029;-77
2022/11/20 03:26:18;;;;;;;58.72;33.20;;;4.60;99.90;;;;;;5072155;28;20025;-76
2022/11/20 03:28:59;;;;;;;59.13;31.35;;;4.50;99.90;;;;;;5072019;28;20044;-76
2022/11/20 03:31:27;;;;;;;60.58;32.72;;;4.40;99.90;;;;;;5046499;28;20059;-76
2022/11/20 03:33:53;;;;;;;60.88;33.85;;;4.40;99.90;;;;;;5071935;28;20067;-76
2022/11/20 03:36:20;;;;;;;62.38;33.60;;;4.50;99.90;;;;;;5071749;28;20048;-76
2022/11/20 03:38:47;;;;;;;65.80;33.78;;;4.60;99.90;;;;;;5072320;28;20082;-76
2022/11/20 03:41:21;;;;;;;61.33;33.28;;;4.60;99.90;;;;;;5072791;28;20027;-76
2022/11/20 03:43:52;;;;;;;74.82;36.72;;;4.60;99.90;;;;;;5072002;28;20064;-76
2022/11/20 03:46:17;;;;;;;68.75;35.22;;;4.50;99.90;;;;;;5070298;28;20107;-76
2022/11/20 03:48:43;;;;;;;67.10;35.33;;;4.40;99.90;;;;;;5072505;28;20456;-76
2022/11/20 03:51:12;;;;;;;69.88;35.70;;;4.20;99.90;;;;;;5074401;28;20082;-76
2022/11/20 03:53:39;;;;;;;69.15;38.20;;;4.20;99.90;;;;;;5050287;28;20021;-76
2022/11/20 03:56:05;;;;;;;73.85;40.83;;;4.20;99.90;;;;;;5046342;28;20024;-76
2022/11/20 03:58:32;;;;;;;72.05;38.38;;;4.60;99.90;;;;;;5075404;28;20067;-76
2022/11/20 04:00:58;;;;;;;74.82;38.72;;;4.60;99.90;;;;;;5074088;28;20064;-76
2022/11/20 04:03:23;;;;;;;78.07;40.55;;;4.30;99.90;;;;;;5075232;28;20059;-76
2022/11/20 04:05:49;;;;;;;78.07;40.60;;;4.40;99.90;;;;;;5073602;28;20024;-76
2022/11/20 04:08:15;;;;;;;74.82;40.50;;;4.40;99.90;;;;;;5073846;28;20016;-76
2022/11/20 04:10:40;;;;;;;77.50;41.58;;;4.50;99.90;;;;;;5075422;28;20047;-76
2022/11/20 04:13:06;;;;;;;74.22;38.17;;;4.50;99.90;;;;;;5074987;28;20116;-76
2022/11/20 04:15:32;;;;;;;74.35;39.05;;;4.50;99.90;;;;;;5074730;28;20024;-76
2022/11/20 04:17:57;;;;;;;71.50;39.53;;;4.70;99.90;;;;;;5074927;28;20036;-75
2022/11/20 04:20:23;;;;;;;71.05;37.63;;;4.70;99.90;;;;;;5074856;28;20039;-76
2022/11/20 04:22:52;;;;;;;71.68;39.00;;;4.70;99.90;;;;;;5075509;28;20021;-76
2022/11/20 04:25:18;;;;;;;76.50;40.00;;;4.80;99.90;;;;;;5073835;28;20029;-76
2022/11/20 04:27:43;;;;;;;74.63;39.85;;;4.70;99.90;;;;;;5073536;28;20104;-76
2022/11/20 04:30:10;;;;;;;81.40;40.03;;;4.30;99.90;;;;;;5073471;28;20042;-76
2022/11/20 04:32:35;;;;;;;69.22;39.15;;;4.40;99.90;;;;;;5073288;28;20504;-76
2022/11/20 04:35:01;;;;;;;79.35;40.35;;;4.60;99.90;;;;;;5074543;28;20111;-75
2022/11/20 04:37:27;;;;;;;72.30;37.95;;;4.70;99.90;;;;;;5074304;28;20046;-76
2022/11/20 04:39:52;;;;;;;75.53;40.38;;;4.90;99.90;;;;;;5074712;28;20150;-76
2022/11/20 04:42:30;;;;;;;73.38;39.42;;;4.90;99.90;;;;;;5074356;28;20047;-76
2022/11/20 04:44:56;;;;;;;72.75;40.50;;;5.00;99.90;;;;;;5074406;28;20130;-76
2022/11/20 04:47:22;;;;;;;77.60;39.58;;;5.00;99.90;;;;;;5074457;28;20056;-75
2022/11/20 04:49:48;;;;;;;69.38;38.60;;;5.00;99.90;;;;;;5073300;28;20431;-76
2022/11/20 04:52:14;;;;;;;84.68;41.45;;;5.00;99.90;;;;;;5072860;28;20020;-76
2022/11/20 04:54:40;;;;;;;78.20;40.53;;;5.00;99.90;;;;;;5074490;28;20424;-76
2022/11/20 04:57:05;;;;;;;73.13;39.45;;;5.10;99.90;;;;;;5073064;28;20052;-76
2022/11/20 04:59:31;;;;;;;70.28;38.80;;;5.00;99.90;;;;;;5072500;28;20031;-76
2022/11/20 05:01:57;;;;;;;69.68;37.72;;;4.40;99.90;;;;;;5074001;28;20107;-76
2022/11/20 05:04:23;;;;;;;77.53;38.25;;;4.50;99.90;;;;;;5073968;28;20047;-76
2022/11/20 05:06:50;;;;;;;73.05;38.72;;;4.40;99.90;;;;;;5074160;28;20055;-76
2022/11/20 05:09:16;;;;;;;79.40;37.90;;;4.40;99.90;;;;;;5073863;28;20020;-76
2022/11/20 05:11:41;;;;;;;71.65;39.10;;;4.10;99.90;;;;;;5072928;28;20051;-76
2022/11/20 05:14:07;;;;;;;79.40;38.78;;;4.50;99.90;;;;;;5072118;28;20377;-76
2022/11/20 05:16:35;;;;;;;75.43;39.40;;;4.70;99.90;;;;;;5073736;28;20017;-76
2022/11/20 05:19:00;;;;;;;78.80;39.63;;;4.80;99.90;;;;;;5055842;28;20493;-76
2022/11/20 05:21:27;;;;;;;76.22;41.17;;;4.90;99.90;;;;;;5072540;28;20025;-76
2022/11/20 05:23:53;;;;;;;76.20;39.03;;;5.00;99.90;;;;;;5073659;28;20017;-76
2022/11/20 05:26:21;;;;;;;82.97;42.13;;;5.20;99.90;;;;;;5073775;28;20491;-76
2022/11/20 05:28:47;;;;;;;80.25;41.15;;;5.40;99.90;;;;;;5073603;28;20020;-76
2022/11/20 05:31:22;;;;;;;74.72;41.17;;;5.50;99.90;;;;;;5072310;28;20056;-76
2022/11/20 05:33:48;;;;;;;81.38;42.50;;;5.50;99.90;;;;;;5071898;28;20032;-76
2022/11/20 05:36:15;;;;;;;71.57;40.70;;;5.50;99.90;;;;;;5073355;28;20020;-76
2022/11/20 05:38:42;;;;;;;70.60;39.58;;;5.60;99.90;;;;;;5073301;28;20036;-76
2022/11/20 05:41:10;;;;;;;66.63;38.65;;;5.60;99.90;;;;;;5072452;28;20032;-76
2022/11/20 05:43:37;;;;;;;70.85;37.00;;;5.50;99.90;;;;;;5072486;28;20530;-76
2022/11/20 05:46:04;;;;;;;70.85;36.58;;;5.40;99.90;;;;;;5071902;28;20503;-76
2022/11/20 05:48:31;;;;;;;71.38;37.80;;;5.30;99.90;;;;;;5072870;28;20031;-76
2022/11/20 05:51:01;;;;;;;67.63;36.45;;;5.30;99.90;;;;;;5071994;28;20033;-76
2022/11/20 05:53:28;;;;;;;74.53;37.28;;;5.20;99.90;;;;;;5071482;28;20472;-76
2022/11/20 05:56:01;;;;;;;69.00;38.40;;;5.20;99.90;;;;;;5072989;28;20035;-76
2022/11/20 05:58:27;;;;;;;63.63;36.15;;;5.00;99.90;;;;;;5072512;28;20472;-76
2022/11/20 06:00:53;;;;;;;68.65;37.92;;;5.00;99.90;;;;;;5071732;28;20012;-76
2022/11/20 06:03:19;;;;;;;66.38;40.60;;;4.90;99.90;;;;;;5072710;28;20063;-76
2022/11/20 06:05:45;;;;;;;67.63;39.67;;;4.90;99.90;;;;;;5071158;28;20446;-76
2022/11/20 06:08:11;;;;;;;68.95;38.03;;;5.00;99.90;;;;;;5072769;28;20071;-76
2022/11/20 06:10:37;;;;;;;72.57;36.15;;;4.60;99.90;;;;;;5054485;28;20062;-76
2022/11/20 06:13:03;;;;;;;62.47;35.55;;;4.40;99.90;;;;;;5070683;28;20032;-75
2022/11/20 06:15:28;;;;;;;148.90;45.75;;;4.50;99.90;;;;;;5054554;28;20012;-76
2022/11/20 06:17:55;;;;;;;68.85;36.83;;;4.60;99.90;;;;;;5072426;28;20403;-75
2022/11/20 06:20:21;;;;;;;68.07;37.78;;;4.70;99.90;;;;;;5072465;28;20028;-75
2022/11/20 06:22:47;;;;;;;77.35;44.35;;;4.70;99.90;;;;;;5072493;28;20044;-75
2022/11/20 06:25:13;;;;;;;66.90;41.40;;;4.70;99.90;;;;;;5072756;28;20024;-75
2022/11/20 06:27:39;;;;;;;87.90;49.15;;;4.70;99.90;;;;;;5072074;28;20075;-75
2022/11/20 06:30:05;;;;;;;66.93;37.08;;;4.80;99.90;;;;;;5072322;28;20060;-75
2022/11/20 06:32:32;;;;;;;69.78;36.72;;;4.70;99.90;;;;;;5071195;28;20078;-75
2022/11/20 06:34:58;;;;;;;70.18;36.92;;;4.70;99.90;;;;;;5071171;28;20069;-76
2022/11/20 06:37:24;;;;;;;69.32;37.33;;;4.60;99.90;;;;;;5072000;28;20631;-75
2022/11/20 06:39:49;;;;;;;70.82;38.45;;;4.50;99.90;;;;;;5072041;28;20021;-76
2022/11/20 06:42:15;;;;;;;70.00;39.08;;;4.50;99.90;;;;;;5072441;28;20028;-75
2022/11/20 06:44:41;;;;;;;75.00;38.55;;;4.60;99.90;;;;;;5060857;28;20028;-76
2022/11/20 06:47:07;;;;;;;71.28;38.10;;;4.70;99.90;;;;;;5043733;28;20020;-75
2022/11/20 06:49:34;;;;;;;69.18;37.03;;;4.60;99.90;;;;;;5046835;28;20434;-75
2022/11/20 06:51:59;;;;;;;69.28;38.90;;;4.50;99.90;;;;;;5047851;28;20051;-76
2022/11/20 06:54:25;;;;;;;71.88;38.53;;;4.70;99.90;;;;;;5051788;28;20098;-75
2022/11/20 06:56:51;;;;;;;70.55;35.70;;;4.70;99.90;;;;;;5061483;28;20479;-76
2022/11/20 06:59:17;;;;;;;62.80;36.05;;;4.80;99.90;;;;;;5060474;28;20099;-75
2022/11/20 07:01:43;;;;;;;64.50;36.58;;;4.90;99.90;;;;;;5054109;28;20036;-76
2022/11/20 07:04:09;;;;;;;67.72;37.50;;;4.80;99.90;;;;;;5050587;28;20025;-76
2022/11/20 07:06:35;;;;;;;62.35;35.13;;;4.60;99.90;;;;;;5060882;28;20024;-76
2022/11/20 07:09:01;;;;;;;65.38;36.75;;;4.70;99.90;;;;;;5061542;28;20021;-76
2022/11/20 07:11:27;;;;;;;63.00;36.30;;;4.60;99.90;;;;;;5067269;28;20033;-76
2022/11/20 07:13:52;;;;;;;60.55;33.95;;;4.60;99.90;;;;;;5056182;28;20028;-76
2022/11/20 07:16:18;;;;;;;64.47;34.75;;;4.70;99.90;;;;;;5051098;28;20033;-76
2022/11/20 07:18:44;;;;;;;61.85;34.78;;;4.70;99.90;;;;;;5062229;28;20032;-76
2022/11/20 07:21:10;;;;;;;59.63;33.95;;;4.60;99.90;;;;;;5060094;28;20013;-77
2022/11/20 07:23:37;;;;;;;65.60;34.83;;;4.40;99.90;;;;;;5058636;28;20033;-76
2022/11/20 07:26:09;;;;;;;67.28;35.75;;;4.50;99.90;;;;;;5055542;28;20467;-77
2022/11/20 07:28:36;;;;;;;60.97;34.70;;;4.50;99.90;;;;;;5052561;28;20025;-77
2022/11/20 07:31:03;;;;;;;64.18;34.55;;;4.50;99.90;;;;;;5055360;28;20029;-77
2022/11/20 07:33:28;;;;;;;66.30;35.53;;;4.50;99.90;;;;;;5065180;28;20100;-76
2022/11/20 07:35:54;;;;;;;60.10;33.80;;;4.50;99.90;;;;;;5064646;28;20151;-76
2022/11/20 07:38:20;;;;;;;63.85;34.97;;;4.60;99.90;;;;;;5054519;28;20025;-77
2022/11/20 07:40:46;;;;;;;64.30;35.28;;;4.60;99.90;;;;;;5074678;28;20472;-77
2022/11/20 07:43:11;;;;;;;60.70;35.15;;;4.60;99.90;;;;;;5073510;28;20067;-77
2022/11/20 07:45:37;;;;;;;68.85;36.50;;;4.50;99.90;;;;;;5063473;28;20028;-77
2022/11/20 07:48:03;;;;;;;64.35;35.22;;;4.50;99.90;;;;;;5063499;28;20529;-77
2022/11/20 07:50:29;;;;;;;71.68;36.60;;;4.70;99.90;;;;;;5055211;28;20032;-77
2022/11/20 07:53:05;;;;;;;69.22;36.65;;;4.90;99.90;;;;;;5057095;28;20025;-75
2022/11/20 07:55:31;;;;;;;72.13;36.58;;;5.10;99.90;;;;;;5052819;28;20028;-75
2022/11/20 07:57:57;;;;;;;79.05;37.13;;;5.30;99.90;;;;;;5059736;28;20029;-77
2022/11/20 08:00:23;;;;;;;63.28;36.70;;;5.30;99.90;;;;;;5058995;28;20017;-77
2022/11/20 08:02:49;;;;;;;72.07;36.05;;;5.20;99.90;;;;;;5055516;28;20161;-76
2022/11/20 08:05:15;;;;;;;71.72;35.35;;;5.10;99.90;;;;;;5048912;28;20063;-76
2022/11/20 08:07:43;;;;;;;72.97;37.28;;;5.00;99.90;;;;;;5057486;28;20040;-76
2022/11/20 08:10:10;;;;;;;67.32;35.03;;;5.10;99.90;;;;;;5062447;28;20154;-76
2022/11/20 08:15:27;;;;;;;70.47;34.63;;;5.10;99.90;;;;;;5040063;28;20130;-76
2022/11/20 08:18:00;;;;;;;69.70;37.05;;;5.20;99.90;;;;;;5047426;28;20133;-76
2022/11/20 08:20:25;;;;;;;73.28;38.20;;;5.20;99.90;;;;;;5051372;28;20021;-76
2022/11/20 08:22:51;;;;;;;72.97;37.47;;;5.30;99.90;;;;;;5057001;28;20114;-76
2022/11/20 08:25:17;;;;;;;82.93;37.72;;;5.30;99.90;;;;;;5056198;28;20017;-76
2022/11/20 08:27:42;;;;;;;73.45;36.72;;;5.20;99.90;;;;;;5056656;28;20104;-77
2022/11/20 08:30:09;;;;;;;75.22;37.83;;;5.10;99.90;;;;;;5056466;28;20013;-76
2022/11/20 08:32:37;;;;;;;75.15;38.78;;;5.20;99.90;;;;;;5048433;28;20039;-76
2022/11/20 08:35:02;;;;;;;83.70;39.72;;;5.20;99.90;;;;;;5055669;28;20100;-74
2022/11/20 08:37:28;;;;;;;72.88;37.13;;;5.10;99.90;;;;;;5054277;28;20482;-77
2022/11/20 08:39:56;;;;;;;74.68;38.80;;;5.00;99.90;;;;;;5068594;28;20028;-76
2022/11/20 08:42:22;;;;;;;74.55;39.40;;;5.10;99.90;;;;;;5073660;28;20483;-76
2022/11/20 08:44:48;;;;;;;80.65;37.78;;;5.00;99.90;;;;;;5073934;28;20059;-76
2022/11/20 08:47:14;;;;;;;72.43;37.00;;;5.20;99.90;;;;;;5073442;28;20067;-76
2022/11/20 08:49:40;;;;;;;79.13;39.13;;;5.20;99.90;;;;;;5073325;28;20063;-76
2022/11/20 08:52:05;;;;;;;68.32;36.60;;;5.30;99.90;;;;;;5055470;28;20031;-77
2022/11/20 08:54:31;;;;;;;71.97;37.33;;;5.70;99.90;;;;;;5073254;28;20029;-77
2022/11/20 08:56:57;;;;;;;69.85;37.00;;;5.70;99.90;;;;;;5073237;28;20039;-77
2022/11/20 08:59:23;;;;;;;66.57;35.67;;;5.80;99.90;;;;;;5073430;28;20158;-77
2022/11/20 09:01:48;;;;;;;76.63;36.05;;;5.90;99.90;;;;;;5063422;28;20032;-77
2022/11/20 09:04:15;;;;;;;69.18;35.47;;;5.90;99.90;;;;;;5073025;28;20044;-78
2022/11/20 09:06:41;;;;;;;69.72;34.65;;;5.90;99.90;;;;;;5072965;28;20033;-78
2022/11/20 09:09:06;;;;;;;66.57;35.47;;;5.90;99.90;;;;;;5073170;28;20143;-78
2022/11/20 09:11:34;;;;;;;73.97;36.35;;;5.70;99.90;;;;;;5071959;28;20086;-78
2022/11/20 09:14:00;;;;;;;67.43;34.83;;;5.60;99.90;;;;;;5071771;28;20051;-77
2022/11/20 09:16:25;;;;;;;68.00;37.55;;;5.70;99.90;;;;;;5073007;28;20381;-78
2022/11/20 09:18:51;;;;;;;72.25;36.67;;;5.80;99.90;;;;;;5071388;28;20052;-77
2022/11/20 09:21:17;;;;;;;75.30;38.03;;;5.60;99.90;;;;;;5071455;28;20016;-78
2022/11/20 09:23:43;;;;;;;82.05;38.40;;;5.60;99.90;;;;;;5072840;28;20020;-77
2022/11/20 09:26:11;;;;;;;71.68;37.72;;;5.50;99.90;;;;;;5043987;28;20036;-77
2022/11/20 09:28:37;;;;;;;78.85;41.10;;;5.60;99.90;;;;;;5039441;28;20120;-78
2022/11/20 09:31:19;;;;;;;84.18;41.53;;;5.60;99.90;;;;;;5049203;28;20061;-77
2022/11/20 09:33:44;;;;;;;87.60;39.85;;;5.60;99.90;;;;;;5053230;28;20082;-77
2022/11/20 09:36:10;;;;;;;85.80;40.20;;;5.60;99.90;;;;;;5060620;28;20021;-77
2022/11/20 09:38:36;;;;;;;90.38;41.00;;;5.80;99.90;;;;;;5059032;28;20095;-76
2022/11/20 09:41:06;;;;;;;90.07;43.00;;;5.80;99.90;;;;;;5072211;28;20035;-76
2022/11/20 09:43:44;;;;;;;88.28;41.17;;;6.00;99.90;;;;;;5071509;28;20793;-79
2022/11/20 09:46:37;;;;;;;81.57;38.63;;;5.80;99.90;;;;;;5070549;28;20025;-77
2022/11/20 09:49:24;;;;;;;89.97;42.15;;;5.80;99.90;;;;;;5061673;28;20063;-78
2022/11/20 09:51:57;;;;;;;89.85;41.45;;;5.80;99.90;;;;;;5051162;28;20495;-78
2022/11/20 09:54:31;;;;;;;95.25;41.92;;;5.80;99.90;;;;;;5072018;28;20035;-79
2022/11/20 09:57:02;;;;;;;99.95;43.38;;;5.80;99.90;;;;;;5067004;28;20039;-78
2022/11/20 09:59:41;;;;;;;105.80;45.60;;;5.90;99.90;;;;;;5040934;28;20025;-76
2022/11/20 10:02:24;;;;;;;101.18;43.17;;;5.90;99.90;;;;;;5057153;28;20032;-76
2022/11/20 10:04:57;;;;;;;101.65;45.22;;;6.00;99.90;;;;;;5046547;28;20462;-78
2022/11/20 10:07:29;;;;;;;100.05;44.70;;;5.90;99.90;;;;;;5046982;28;20408;-78
2022/11/20 10:09:56;;;;;;;109.63;46.40;;;5.80;99.90;;;;;;5055744;28;20069;-78
2022/11/20 10:12:45;;;;;;;103.65;42.92;;;5.90;99.90;;;;;;5033945;28;20030;-78
2022/11/20 10:15:54;;;;;;;94.47;42.28;;;5.80;99.90;;;;;;5036195;28;20037;-78
2022/11/20 10:18:46;;;;;;;108.35;44.42;;;5.90;99.90;;;;;;5056924;28;20405;-78
2022/11/20 10:21:38;;;;;;;107.82;44.50;;;5.90;99.90;;;;;;5057626;28;20111;-77
2022/11/20 10:24:23;;;;;;;;;;;6.10;99.90;;;;;;5055413;28;20097;-78
2022/11/20 10:27:27;;;;;;;98.75;42.40;;;6.10;99.90;;;;;;5045779;28;19995;-78
2022/11/20 10:30:11;;;;;;;96.82;39.03;;;6.10;99.90;;;;;;5047252;28;20507;-78
2022/11/20 10:32:40;;;;;;;100.00;42.28;;;6.20;99.90;;;;;;5035602;28;20331;-78
2022/11/20 10:35:31;;;;;;;106.63;45.53;;;6.30;99.90;;;;;;5032400;28;20059;-78
2022/11/20 10:38:07;;;;;;;106.78;41.70;;;6.50;99.90;;;;;;5032165;28;20088;-78
2022/11/20 10:40:40;;;;;;;98.68;40.70;;;6.60;99.90;;;;;;5035470;28;20033;-78
2022/11/20 10:43:32;;;;;;;89.07;38.85;;;6.50;99.90;;;;;;5034251;28;20031;-78
2022/11/20 10:46:02;;;;;;;100.75;42.63;;;6.50;99.90;;;;;;5031060;28;20381;-78
2022/11/20 10:48:31;;;;;;;105.13;42.22;;;6.60;99.90;;;;;;5033548;28;20048;-77
2022/11/20 10:51:04;;;;;;;106.13;42.20;;;6.70;99.90;;;;;;5037473;28;20033;-78
2022/11/20 10:54:04;;;;;;;101.72;42.70;;;6.90;99.90;;;;;;5036393;28;20041;-78
2022/11/20 10:56:33;;;;;;;92.18;40.88;;;6.90;99.90;;;;;;5033064;28;20500;-78
2022/11/20 10:59:35;;;;;;;97.65;42.72;;;7.10;99.90;;;;;;5038826;28;20076;-78
2022/11/20 11:02:01;;;;;;;101.43;43.50;;;7.10;99.90;;;;;;5036800;28;20022;-78
2022/11/20 11:04:42;;;;;;;91.13;38.30;;;7.00;99.90;;;;;;5036235;28;20036;-78
2022/11/20 11:07:38;;;;;;;98.13;39.30;;;7.10;99.90;;;;;;5051324;28;20025;-78
2022/11/20 11:10:23;;;;;;;90.88;34.78;;;7.20;99.90;;;;;;5051423;28;20017;-78
2022/11/20 11:12:48;;;;;;;90.32;39.42;;;7.20;99.90;;;;;;5049574;28;20129;-78
2022/11/20 11:15:37;;;;;;;90.68;37.13;;;7.20;99.90;;;;;;5057877;28;20444;-78
2022/11/20 11:18:03;;;;;;;83.32;35.30;;;7.30;99.90;;;;;;5056210;28;20081;-78
2022/11/20 11:20:29;;;;;;;97.18;43.20;;;7.30;99.90;;;;;;5059337;28;20044;-78
2022/11/20 11:22:58;;;;;;;89.28;40.50;;;7.20;99.90;;;;;;5056015;28;20039;-78
2022/11/20 11:25:26;;;;;;;91.28;40.45;;;7.40;99.90;;;;;;5059642;28;20547;-78
2022/11/20 11:27:54;;;;;;;85.43;37.13;;;7.50;99.90;;;;;;5050573;28;20024;-78
2022/11/20 11:30:21;;;;;;;81.07;34.60;;;7.50;99.90;;;;;;5055660;28;20028;-77
2022/11/20 11:32:47;;;;;;;90.72;36.40;;;7.40;99.90;;;;;;5048861;28;20029;-77
2022/11/20 11:35:27;;;;;;;84.32;33.97;;;7.50;99.90;;;;;;5054860;28;20033;-78
2022/11/20 11:38:12;;;;;;;85.28;40.05;;;7.60;99.90;;;;;;5059664;28;20563;-77
2022/11/20 11:40:39;;;;;;;92.95;40.88;;;7.50;99.90;;;;;;5044241;28;20060;-78
2022/11/20 11:45:04;;;;;;;79.82;34.38;;;7.60;99.90;;;;;;5041816;28;20074;-79
2022/11/20 11:46:04;;;;;;;74.60;33.10;;;7.80;99.90;;;;;;5044715;28;20033;-77
2022/11/20 11:48:30;;;;;;;88.20;36.75;;;7.80;99.90;;;;;;5054169;28;20094;-77
2022/11/20 11:50:55;;;;;;;85.63;36.22;;;8.00;99.90;;;;;;5053979;28;20032;-77
2022/11/20 11:53:25;;;;;;;85.13;32.10;;;8.00;99.90;;;;;;5053381;28;20064;-77
2022/11/20 11:56:02;;;;;;;80.07;37.15;;;8.00;99.90;;;;;;5053493;28;20032;-77
2022/11/20 11:58:49;;;;;;;71.18;30.63;;;8.10;99.90;;;;;;5054914;28;20048;-77
2022/11/20 12:01:59;;;;;;;75.22;30.75;;;8.20;99.90;;;;;;5044163;28;20029;-77
2022/11/20 12:04:46;;;;;;;73.35;29.30;;;8.30;99.90;;;;;;5013401;28;20061;-77
2022/11/20 12:07:45;;;;;;;70.15;28.33;;;8.20;99.90;;;;;;5013084;28;20560;-77
2022/11/20 12:10:34;;;;;;;81.03;33.28;;;8.20;99.90;;;;;;5046510;28;20482;-77
2022/11/20 12:13:21;;;;;;;66.60;30.95;;;8.20;99.90;;;;;;5041424;28;20443;-77
2022/11/20 12:15:48;;;;;;;64.63;28.77;;;8.30;99.90;;;;;;5053535;28;20033;-77
2022/11/20 12:18:22;;;;;;;71.10;30.23;;;8.30;99.90;;;;;;5054056;28;20041;-77
2022/11/20 12:21:08;;;;;;;75.80;32.67;;;8.30;99.90;;;;;;5053021;28;20036;-76
2022/11/20 12:24:02;;;;;;;71.68;31.75;;;8.30;99.90;;;;;;5054746;28;20025;-77
2022/11/20 12:26:54;;;;;;;62.40;26.17;;;8.40;99.90;;;;;;5054129;28;20484;-77
2022/11/20 12:29:51;;;;;;;51.90;24.05;;;8.50;99.90;;;;;;5052727;28;20064;-77
2022/11/20 12:32:38;;;;;;;37.45;17.83;;;8.40;99.90;;;;;;5052979;28;20420;-77
2022/11/20 12:35:31;;;;;;;28.15;13.52;;;8.50;99.90;;;;;;5053988;28;20090;-77
2022/11/20 12:38:15;;;;;;;22.55;10.95;;;8.60;99.90;;;;;;5053791;28;20067;-76
2022/11/20 12:41:13;;;;;;;18.42;7.25;;;8.50;99.90;;;;;;5042134;28;20041;-77
2022/11/20 12:47:39;;;;;;;10.25;4.30;;;8.50;99.90;;;;;;5012340;28;20042;-77
2022/11/20 12:50:25;;;;;;;11.68;4.78;;;8.40;99.90;;;;;;5072444;28;20033;-77
2022/11/20 12:53:05;;;;;;;10.20;3.35;;;8.40;99.90;;;;;;5073426;28;20048;-77
2022/11/20 12:55:37;;;;;;;15.50;5.07;;;8.40;99.90;;;;;;5072456;28;20100;-77
2022/11/20 12:58:28;;;;;;;8.45;3.70;;;8.30;99.90;;;;;;5073559;28;20036;-77
2022/11/20 13:01:05;;;;;;;12.73;3.40;;;8.40;99.90;;;;;;5072848;28;20044;-77
2022/11/20 13:03:47;;;;;;;6.80;3.45;;;8.20;99.90;;;;;;5073793;28;20036;-78